Time;durP1;ratioP1;P1;durP2;ratioP2;P2;SDS_P1;SDS_P2;PMS_P1;PMS_P2;Temp;Humidity;BMP_temperature;BMP_pressure;BME280_temperature;BME280_humidity;BME280_pressure;Samples;Min_cycle;Max_cycle;Signal;HPM_P1;HPM_P2
2022/12/12 00:00:52;;;;;;;86.75;26.92;;;;;;;-3.96;100.00;101035.50;5164532;28;20025;-73
2022/12/12 00:03:22;;;;;;;83.68;26.42;;;;;;;-3.98;100.00;101029.44;5164804;28;20069;-71
2022/12/12 00:05:54;;;;;;;85.95;25.10;;;;;;;-4.02;100.00;101027.88;5162876;28;20448;-71
2022/12/12 00:08:24;;;;;;;92.80;26.55;;;;;;;-4.09;100.00;101025.63;5163685;28;20030;-71
2022/12/12 00:10:55;;;;;;;86.10;25.30;;;;;;;-4.14;100.00;101030.22;5163828;28;20076;-73
2022/12/12 00:13:25;;;;;;;82.93;24.67;;;;;;;-4.21;100.00;101032.28;5164657;28;20480;-72
2022/12/12 00:15:56;;;;;;;91.47;26.25;;;;;;;-4.25;100.00;101031.53;5164048;28;20484;-72
2022/12/12 00:18:26;;;;;;;90.05;27.48;;;;;;;-4.28;100.00;101038.69;5163282;28;20065;-72
2022/12/12 00:20:57;;;;;;;90.28;27.27;;;;;;;-4.29;100.00;101034.38;5158767;28;20030;-73
2022/12/12 00:23:28;;;;;;;97.93;27.77;;;;;;;-4.32;100.00;101037.09;5163761;28;20077;-74
2022/12/12 00:26:01;;;;;;;83.70;25.35;;;;;;;-4.34;100.00;101038.94;5156319;28;20034;-73
2022/12/12 00:28:32;;;;;;;86.50;25.15;;;;;;;-4.39;100.00;101041.75;5160682;28;20487;-73
2022/12/12 00:31:02;;;;;;;88.15;24.85;;;;;;;-4.44;100.00;101041.97;5164340;28;20026;-73
2022/12/12 00:33:33;;;;;;;76.13;23.83;;;;;;;-4.48;100.00;101036.91;5164010;28;20093;-73
2022/12/12 00:36:04;;;;;;;92.32;27.33;;;;;;;-4.53;100.00;101037.13;5163722;28;20118;-73
2022/12/12 00:38:34;;;;;;;91.50;25.45;;;;;;;-4.54;100.00;101037.19;5163265;28;20375;-73
2022/12/12 00:41:05;;;;;;;83.45;25.42;;;;;;;-4.56;100.00;101044.28;5164116;28;20073;-73
2022/12/12 00:43:35;;;;;;;90.10;26.10;;;;;;;-4.61;100.00;101041.84;5163849;28;20120;-73
2022/12/12 00:46:06;;;;;;;85.78;23.17;;;;;;;-4.65;100.00;101039.41;5163481;28;20396;-73
2022/12/12 00:48:37;;;;;;;88.70;26.50;;;;;;;-4.69;100.00;101038.69;5162943;28;20411;-73
2022/12/12 00:51:10;;;;;;;89.40;24.50;;;;;;;-4.74;100.00;101032.78;5163923;28;20033;-72
2022/12/12 00:53:40;;;;;;;91.90;27.05;;;;;;;-4.75;100.00;101034.56;5164088;28;20030;-73
2022/12/12 00:56:13;;;;;;;95.38;28.00;;;;;;;-4.76;100.00;101043.34;5164060;28;20045;-73
2022/12/12 00:58:43;;;;;;;91.68;25.17;;;;;;;-4.77;100.00;101044.25;5163570;28;20018;-73
2022/12/12 01:01:19;;;;;;;94.05;27.30;;;;;;;-4.80;100.00;101047.00;5164313;28;20036;-74
2022/12/12 01:03:49;;;;;;;85.53;27.00;;;;;;;-4.82;100.00;101050.56;5164265;28;20034;-73
2022/12/12 01:06:21;;;;;;;85.38;25.27;;;;;;;-4.84;100.00;101041.94;5164471;28;20029;-73
2022/12/12 01:08:53;;;;;;;100.10;25.48;;;;;;;-4.87;100.00;101049.91;5163748;28;20443;-73
2022/12/12 01:11:23;;;;;;;94.97;28.48;;;;;;;-4.84;100.00;101041.94;5162194;28;20053;-72
2022/12/12 01:13:54;;;;;;;104.30;30.15;;;;;;;-4.75;100.00;101049.41;5163201;28;20019;-74
2022/12/12 01:16:25;;;;;;;98.28;27.65;;;;;;;-4.70;100.00;101048.31;5163181;28;20038;-73
2022/12/12 01:18:56;;;;;;;97.95;28.05;;;;;;;-4.70;100.00;101058.78;5162724;28;20026;-73
2022/12/12 01:21:26;;;;;;;93.53;27.23;;;;;;;-4.72;100.00;101060.63;5157393;28;20026;-74
2022/12/12 01:23:57;;;;;;;93.90;27.00;;;;;;;-4.78;100.00;101067.84;5162551;28;20050;-73
2022/12/12 01:26:28;;;;;;;89.63;25.73;;;;;;;-4.81;100.00;101065.38;5151576;28;20022;-73
2022/12/12 01:28:58;;;;;;;93.68;25.90;;;;;;;-4.86;100.00;101069.97;5162649;28;20480;-74
2022/12/12 01:31:28;;;;;;;91.28;26.10;;;;;;;-4.91;100.00;101072.75;5162254;28;20536;-73
2022/12/12 01:33:59;;;;;;;84.78;24.58;;;;;;;-4.95;100.00;101074.63;5163268;28;20049;-74
2022/12/12 01:36:29;;;;;;;82.82;25.15;;;;;;;-4.97;100.00;101076.47;5162677;28;20034;-73
2022/12/12 01:39:00;;;;;;;95.45;25.73;;;;;;;-5.00;100.00;101084.44;5162601;28;20073;-72
2022/12/12 01:41:31;;;;;;;83.30;26.73;;;;;;;-5.02;100.00;101085.41;5162999;28;20034;-72
2022/12/12 01:44:06;;;;;;;87.05;24.75;;;;;;;-5.07;100.00;101080.38;5162910;28;20031;-72
2022/12/12 01:46:38;;;;;;;;;;;;;;;-5.10;100.00;101088.34;5162839;28;20100;-71
2022/12/12 01:49:21;;;;;;;80.47;24.33;;;;;;;-5.14;100.00;101089.38;5162376;28;20275;-74
2022/12/12 01:51:57;;;;;;;88.45;24.83;;;;;;;-5.16;100.00;101088.59;5162955;28;20034;-70
2022/12/12 01:54:34;;;;;;;90.40;27.52;;;;;;;-5.19;100.00;101093.94;5162680;28;20018;-71
2022/12/12 01:57:09;;;;;;;92.18;27.08;;;;;;;-5.20;100.00;101084.38;5162151;28;20400;-73
2022/12/12 01:59:41;;;;;;;89.32;27.35;;;;;;;-5.20;100.00;101087.00;5162930;28;20577;-73
2022/12/12 02:02:11;;;;;;;101.90;27.77;;;;;;;-5.18;100.00;101094.78;5163278;28;20408;-72
2022/12/12 02:04:43;;;;;;;93.63;27.77;;;;;;;-5.16;100.00;101098.19;5163187;28;20026;-72
2022/12/12 02:07:14;;;;;;;90.40;25.17;;;;;;;-5.16;100.00;101085.97;5162761;28;20045;-71
2022/12/12 02:09:46;;;;;;;88.20;25.98;;;;;;;-5.15;100.00;101090.28;5162543;28;20105;-71
2022/12/12 02:12:17;;;;;;;77.25;25.15;;;;;;;-5.18;100.00;101097.38;5163327;28;20496;-71
2022/12/12 02:14:51;;;;;;;93.53;27.08;;;;;;;-5.23;100.00;101092.34;5163058;28;20025;-71
2022/12/12 02:17:43;;;;;;;83.43;26.40;;;;;;;-5.29;100.00;101088.19;5162459;28;20031;-72
2022/12/12 02:20:17;;;;;;;92.07;25.60;;;;;;;-5.34;100.00;101097.13;5160199;28;20043;-71
2022/12/12 02:23:02;;;;;;;91.65;25.58;;;;;;;-5.39;100.00;101086.84;5161596;28;20026;-72
2022/12/12 02:26:12;;;;;;;80.80;26.63;;;;;;;-5.40;100.00;101084.31;5161715;28;20026;-72
2022/12/12 02:29:07;;;;;;;81.03;26.35;;;;;;;-5.40;100.00;101093.00;5162029;28;20635;-71
2022/12/12 02:32:07;;;;;;;94.82;26.17;;;;;;;-5.38;100.00;101096.41;5162050;28;20026;-72
2022/12/12 02:35:05;;;;;;;87.40;25.70;;;;;;;-5.42;100.00;101091.34;5162377;28;20023;-72
2022/12/12 02:38:00;;;;;;;80.40;24.13;;;;;;;-5.45;100.00;101101.94;5162452;28;20026;-72
2022/12/12 02:40:43;;;;;;;89.00;26.02;;;;;;;-5.50;100.00;101100.34;5162588;28;20026;-73
2022/12/12 02:44:06;;;;;;;79.78;24.20;;;;;;;-5.52;100.00;101094.31;5165553;28;20023;-71
2022/12/12 02:46:47;;;;;;;85.07;26.92;;;;;;;-5.53;100.00;101091.75;5148799;28;20046;-71
2022/12/12 02:49:34;;;;;;;92.25;25.42;;;;;;;-5.55;100.00;101089.19;5165842;28;20480;-71
2022/12/12 02:52:05;;;;;;;77.25;24.83;;;;;;;-5.56;100.00;101091.88;5166540;28;20041;-71
2022/12/12 02:54:37;;;;;;;86.75;24.50;;;;;;;-5.59;100.00;101090.22;5166198;28;20106;-71
2022/12/12 02:57:19;;;;;;;83.60;26.00;;;;;;;-5.63;100.00;101086.00;5165978;28;20030;-72
2022/12/12 02:59:59;;;;;;;73.05;24.35;;;;;;;-5.64;100.00;101083.47;5165863;28;20085;-71
2022/12/12 03:09:45;;;;;;;81.72;24.10;;;;;;;-5.68;100.00;101089.72;5153534;28;20030;-73
2022/12/12 03:12:26;;;;;;;79.53;26.15;;;;;;;-5.68;100.00;101087.09;5165588;28;20046;-72
2022/12/12 03:15:16;;;;;;;90.75;26.38;;;;;;;-5.68;100.00;101092.31;5166028;28;20021;-72
2022/12/12 03:18:13;;;;;;;83.93;25.88;;;;;;;-5.68;100.00;101102.78;5154407;28;20027;-72
2022/12/12 03:21:05;;;;;;;94.28;26.38;;;;;;;-5.69;100.00;101101.94;5159512;28;20045;-72
2022/12/12 03:23:40;;;;;;;75.72;23.08;;;;;;;-5.70;100.00;101102.84;5165517;28;20030;-72
2022/12/12 03:26:13;;;;;;;;;;;;;;;-5.74;100.00;101109.09;5156461;28;20104;-71
2022/12/12 03:28:48;;;;;;;77.93;22.48;;;;;;;-5.81;100.00;101107.63;5163729;28;19910;-72
2022/12/12 03:31:24;;;;;;;75.43;23.40;;;;;;;-5.86;100.00;101109.56;5165546;28;20026;-70
2022/12/12 03:33:59;;;;;;;76.88;23.65;;;;;;;-5.91;100.00;101106.28;5165581;28;20030;-72
2022/12/12 03:36:37;;;;;;;93.72;26.40;;;;;;;-5.91;100.00;101107.09;5165372;28;20022;-71
2022/12/12 03:39:19;;;;;;;83.63;23.80;;;;;;;-5.91;100.00;101108.91;5165197;28;20113;-71
2022/12/12 03:41:56;;;;;;;84.20;25.45;;;;;;;-5.90;100.00;101100.09;5165021;28;20109;-72
2022/12/12 03:44:43;;;;;;;88.18;26.02;;;;;;;-5.88;100.00;101106.97;5165193;28;20429;-71
2022/12/12 03:47:21;;;;;;;83.68;24.10;;;;;;;-5.86;100.00;101110.41;5164814;28;20037;-71
2022/12/12 03:49:59;;;;;;;77.47;25.33;;;;;;;-5.86;100.00;101109.56;5164898;28;20045;-71
2022/12/12 03:52:40;;;;;;;95.13;25.63;;;;;;;-5.87;100.00;101111.31;5164914;28;20484;-72
2022/12/12 03:55:21;;;;;;;75.13;21.90;;;;;;;-5.89;100.00;101105.28;5164519;28;20029;-72
2022/12/12 03:58:10;;;;;;;68.85;23.83;;;;;;;-5.92;100.00;101109.78;5164620;28;20424;-72
2022/12/12 04:00:44;;;;;;;81.90;23.75;;;;;;;-5.96;100.00;101114.28;5165005;28;20048;-73
2022/12/12 04:03:23;;;;;;;89.88;25.35;;;;;;;-6.00;100.00;101112.69;5165042;28;20030;-72
2022/12/12 04:06:28;;;;;;;75.93;24.95;;;;;;;-6.04;100.00;101106.69;5164622;28;20062;-71
2022/12/12 04:15:02;;;;;;;102.57;26.15;;;;;;;-6.07;100.00;101117.28;5172238;28;20053;-70
2022/12/12 04:17:41;;;;;;;87.18;24.02;;;;;;;-6.06;100.00;101121.59;5151420;28;20034;-71
2022/12/12 04:23:30;;;;;;;79.82;25.98;;;;;;;-6.10;100.00;101116.53;5158805;28;20045;-71
2022/12/12 04:29:05;;;;;;;95.45;28.52;;;;;;;-6.15;100.00;101121.06;5163708;28;20116;-70
2022/12/12 04:31:45;;;;;;;97.20;30.65;;;;;;;-6.16;100.00;101124.59;5163754;28;20028;-71
2022/12/12 04:34:27;;;;;;;102.20;28.88;;;;;;;-6.19;100.00;101120.31;5164403;28;20014;-72
2022/12/12 04:37:00;;;;;;;96.53;27.38;;;;;;;-6.19;100.00;101130.75;5163782;28;20476;-72
2022/12/12 04:39:34;;;;;;;91.05;27.95;;;;;;;-6.20;100.00;101126.44;5163977;28;20028;-71
2022/12/12 04:42:09;;;;;;;98.73;26.83;;;;;;;-6.23;100.00;101123.91;5164071;28;20076;-72
2022/12/12 04:44:41;;;;;;;;;;;;;;;-6.24;100.00;101129.19;5164400;28;20293;-71
2022/12/12 04:47:14;;;;;;;107.47;28.20;;;;;;;-6.28;100.00;101134.53;5163821;28;19933;-71
2022/12/12 04:49:48;;;;;;;98.43;27.33;;;;;;;-6.29;100.00;101139.81;5163849;28;20034;-72
2022/12/12 04:52:21;;;;;;;92.45;26.52;;;;;;;-6.31;100.00;101142.47;5163606;28;20303;-72
2022/12/12 04:54:57;;;;;;;83.50;22.88;;;;;;;-6.33;100.00;101139.03;5164002;28;20033;-72
2022/12/12 04:57:34;;;;;;;74.80;23.38;;;;;;;-6.34;100.00;101136.50;5163601;28;20388;-73
2022/12/12 05:00:06;;;;;;;75.85;23.63;;;;;;;-6.36;100.00;101133.09;5163803;28;20034;-70
2022/12/12 05:02:55;;;;;;;79.57;24.15;;;;;;;-6.40;100.00;101140.16;5163658;28;20030;-70
2022/12/12 05:05:52;;;;;;;75.38;27.63;;;;;;;-6.46;100.00;101129.94;5163196;28;20034;-69
2022/12/12 05:08:29;;;;;;;89.85;27.30;;;;;;;-6.49;100.00;101124.81;5178331;28;20022;-70
2022/12/12 05:11:03;;;;;;;92.50;29.23;;;;;;;-6.53;100.00;101128.41;5162844;28;20492;-69
2022/12/12 05:13:39;;;;;;;104.55;29.80;;;;;;;-6.55;100.00;101128.47;5163470;28;20037;-70
2022/12/12 05:16:18;;;;;;;99.63;30.92;;;;;;;-6.54;100.00;101130.19;5163237;28;20022;-70
2022/12/12 05:18:49;;;;;;;120.85;32.28;;;;;;;-6.54;100.00;101130.19;5163310;28;20030;-70
2022/12/12 05:21:20;;;;;;;111.95;29.80;;;;;;;-6.54;100.00;101132.78;5162856;28;20034;-70
2022/12/12 05:23:51;;;;;;;106.10;28.55;;;;;;;-6.54;100.00;101135.41;5163334;28;20069;-70
2022/12/12 05:26:35;;;;;;;109.90;30.58;;;;;;;-6.52;100.00;101140.59;5152013;28;20042;-71
2022/12/12 05:29:05;;;;;;;103.60;29.38;;;;;;;-6.53;100.00;101144.09;5152014;28;20065;-71
2022/12/12 05:31:36;;;;;;;77.90;23.75;;;;;;;-6.55;100.00;101144.13;5163273;28;20022;-72
2022/12/12 05:34:06;;;;;;;75.88;23.00;;;;;;;-6.57;100.00;101139.88;5163318;28;20030;-71
2022/12/12 05:36:37;;;;;;;81.15;22.55;;;;;;;-6.58;100.00;101143.38;5163074;28;20385;-72
2022/12/12 05:39:07;;;;;;;76.97;21.98;;;;;;;-6.59;100.00;101145.13;5162891;28;20033;-72
2022/12/12 05:41:38;;;;;;;69.40;22.15;;;;;;;-6.63;100.00;101143.53;5150843;28;20054;-71
2022/12/12 05:44:08;;;;;;;85.00;25.05;;;;;;;-6.68;100.00;101137.59;5157400;28;20441;-72
2022/12/12 05:46:39;;;;;;;82.28;24.15;;;;;;;-6.74;100.00;101148.25;5161557;28;20022;-72
2022/12/12 05:49:09;;;;;;;77.55;24.95;;;;;;;-6.78;100.00;101141.41;5161671;28;20011;-72
2022/12/12 05:51:40;;;;;;;80.18;24.73;;;;;;;-6.81;100.00;101144.13;5161931;28;20030;-72
2022/12/12 05:54:11;;;;;;;83.72;24.63;;;;;;;-6.87;100.00;101157.38;5161443;28;20018;-72
2022/12/12 05:56:41;;;;;;;90.05;27.98;;;;;;;-6.91;100.00;101148.78;5161652;28;20484;-72
2022/12/12 05:59:11;;;;;;;105.78;30.75;;;;;;;-6.93;100.00;101150.56;5161448;28;20022;-72
2022/12/12 06:01:42;;;;;;;114.05;33.33;;;;;;;-6.93;100.00;101152.34;5161878;28;20046;-71
2022/12/12 06:04:12;;;;;;;132.75;35.03;;;;;;;-6.95;100.00;101160.22;5161440;28;20026;-71
2022/12/12 06:06:43;;;;;;;114.15;33.47;;;;;;;-6.97;100.00;101158.56;5161879;28;20037;-71
2022/12/12 06:09:14;;;;;;;106.22;31.77;;;;;;;-7.00;100.00;101163.88;5161212;28;20030;-71
2022/12/12 06:11:45;;;;;;;110.32;32.20;;;;;;;-7.05;100.00;101161.41;5161881;28;20100;-71
2022/12/12 06:14:15;;;;;;;96.35;27.65;;;;;;;-7.05;100.00;101158.78;5161591;28;20088;-71
2022/12/12 06:16:45;;;;;;;101.63;30.77;;;;;;;-7.07;100.00;101158.84;5161667;28;20116;-71
2022/12/12 06:19:20;;;;;;;107.00;28.92;;;;;;;-7.06;100.00;101163.16;5165184;28;20472;-71
2022/12/12 06:21:50;;;;;;;107.50;30.35;;;;;;;-7.04;100.00;101161.34;5159373;28;20489;-71
2022/12/12 06:24:21;;;;;;;95.47;27.27;;;;;;;-7.04;100.00;101169.16;5165435;28;20026;-72
2022/12/12 06:26:52;;;;;;;94.75;28.05;;;;;;;-7.05;100.00;101166.63;5154046;28;20168;-71
2022/12/12 06:29:22;;;;;;;101.18;29.70;;;;;;;-7.07;100.00;101163.22;5165687;28;20495;-71
2022/12/12 06:31:53;;;;;;;101.28;29.48;;;;;;;-7.09;100.00;101171.06;5165228;28;20026;-71
2022/12/12 06:34:23;;;;;;;104.05;30.88;;;;;;;-7.11;100.00;101169.41;5180170;28;20074;-71
2022/12/12 06:36:54;;;;;;;103.50;28.77;;;;;;;-7.13;100.00;101163.38;5164582;28;20034;-71
2022/12/12 06:39:24;;;;;;;94.85;29.13;;;;;;;-7.14;100.00;101167.75;5165381;28;20101;-70
2022/12/12 06:41:54;;;;;;;111.95;32.63;;;;;;;-7.15;100.00;101173.84;5165327;28;20555;-70
2022/12/12 06:44:25;;;;;;;109.15;30.27;;;;;;;-7.15;100.00;101173.00;5180361;28;20035;-70
2022/12/12 06:46:55;;;;;;;115.57;32.47;;;;;;;-7.16;100.00;101177.38;5164421;28;20031;-70
2022/12/12 06:49:26;;;;;;;107.60;31.02;;;;;;;-7.17;100.00;101185.25;5165465;28;20023;-71
2022/12/12 06:51:56;;;;;;;101.95;31.38;;;;;;;-7.16;100.00;101187.81;5165576;28;20029;-71
2022/12/12 06:54:27;;;;;;;101.45;28.10;;;;;;;-7.14;100.00;101188.59;5165496;28;20026;-71
2022/12/12 06:56:57;;;;;;;110.35;29.83;;;;;;;-7.12;100.00;101186.81;5166226;28;20023;-70
2022/12/12 06:59:29;;;;;;;103.18;31.75;;;;;;;-7.14;100.00;101191.22;5170016;28;20030;-71
2022/12/12 07:01:59;;;;;;;109.97;31.35;;;;;;;-7.15;100.00;101193.88;5174510;28;20018;-71
2022/12/12 07:04:30;;;;;;;102.57;27.05;;;;;;;-7.18;100.00;101192.22;5176315;28;20034;-71
2022/12/12 07:07:00;;;;;;;96.63;27.67;;;;;;;-7.21;100.00;101186.22;5168244;28;20022;-71
2022/12/12 07:09:31;;;;;;;90.75;24.63;;;;;;;-7.23;100.00;101199.28;5165496;28;20045;-71
2022/12/12 07:12:01;;;;;;;89.47;25.00;;;;;;;-7.27;100.00;101192.50;5167501;28;20026;-71
2022/12/12 07:14:32;;;;;;;97.47;25.98;;;;;;;-7.28;100.00;101197.72;5167488;28;20022;-70
2022/12/12 07:17:02;;;;;;;101.88;24.95;;;;;;;-7.31;100.00;101194.31;5165246;28;20391;-70
2022/12/12 07:19:33;;;;;;;85.95;25.58;;;;;;;-7.33;100.00;101198.75;5168411;28;20026;-70
2022/12/12 07:22:03;;;;;;;78.97;23.45;;;;;;;-7.34;100.00;101193.53;5162306;28;20029;-71
2022/12/12 07:24:33;;;;;;;80.72;23.63;;;;;;;-7.35;100.00;101197.91;5162128;28;20026;-71
2022/12/12 07:27:05;;;;;;;86.15;23.42;;;;;;;-7.36;100.00;101195.34;5164140;28;20042;-71
2022/12/12 07:29:36;;;;;;;71.57;23.20;;;;;;;-7.35;100.00;101202.28;5165791;28;20540;-71
2022/12/12 07:32:06;;;;;;;107.38;26.40;;;;;;;-7.35;100.00;101204.88;5164945;28;20136;-70
2022/12/12 07:34:37;;;;;;;74.78;25.40;;;;;;;-7.34;100.00;101214.41;5161189;28;20090;-71
2022/12/12 07:37:07;;;;;;;72.90;23.45;;;;;;;-7.33;100.00;101213.50;5169605;28;20118;-71
2022/12/12 07:39:38;;;;;;;70.30;23.85;;;;;;;-7.33;100.00;101214.38;5164241;28;20018;-71
2022/12/12 07:42:08;;;;;;;85.72;22.88;;;;;;;-7.26;100.00;101219.41;5169751;28;20027;-71
2022/12/12 07:44:39;;;;;;;80.97;24.33;;;;;;;-7.19;100.00;101218.31;5170523;28;20042;-71
2022/12/12 07:47:10;;;;;;;73.55;22.50;;;;;;;-7.16;100.00;101232.13;5167905;28;20109;-71
2022/12/12 07:49:40;;;;;;;91.13;22.67;;;;;;;-7.11;100.00;101226.78;5169596;28;20100;-71
2022/12/12 07:52:11;;;;;;;81.82;23.90;;;;;;;-7.08;100.00;101231.88;5165520;28;20049;-71
2022/12/12 07:54:41;;;;;;;85.15;23.08;;;;;;;-7.02;100.00;101236.09;5167234;28;20058;-71
2022/12/12 07:57:13;;;;;;;62.63;21.02;;;;;;;-6.99;100.00;101242.06;5169531;28;20022;-70
2022/12/12 07:59:43;;;;;;;78.57;22.33;;;;;;;-6.97;100.00;101247.25;5167143;28;20031;-71
2022/12/12 08:02:13;;;;;;;73.50;22.35;;;;;;;-6.97;100.00;101242.88;5168591;28;20022;-71
2022/12/12 08:04:44;;;;;;;72.15;23.55;;;;;;;-6.96;100.00;101246.34;5173337;28;20388;-71
2022/12/12 08:07:14;;;;;;;80.05;22.30;;;;;;;-6.93;100.00;101251.44;5163020;28;20018;-71
2022/12/12 08:09:45;;;;;;;76.75;21.67;;;;;;;-6.90;100.00;101253.97;5169108;28;20117;-71
2022/12/12 08:12:15;;;;;;;79.38;23.70;;;;;;;-6.84;100.00;101248.56;5161435;28;20018;-71
2022/12/12 08:14:46;;;;;;;85.30;22.45;;;;;;;-6.75;100.00;101242.22;5162212;28;20101;-71
2022/12/12 08:17:16;;;;;;;73.40;23.70;;;;;;;-6.61;100.00;101256.56;5162820;28;20045;-71
2022/12/12 08:19:47;;;;;;;83.95;24.02;;;;;;;-6.48;100.00;101259.63;5168604;28;20018;-71
2022/12/12 08:22:17;;;;;;;85.50;23.17;;;;;;;-6.32;100.00;101263.50;5166152;28;20112;-71
2022/12/12 08:24:48;;;;;;;71.88;22.80;;;;;;;-6.02;100.00;101261.66;5167368;28;20057;-71
2022/12/12 08:27:19;;;;;;;79.65;24.65;;;;;;;-5.53;100.00;101256.44;5162498;28;20018;-71
2022/12/12 08:29:53;;;;;;;74.00;22.30;;;;;;;-4.95;100.00;101256.97;5178523;28;20021;-71
2022/12/12 08:32:23;;;;;;;72.15;20.98;;;;;;;-4.39;100.00;101256.53;5165993;28;20036;-71
2022/12/12 08:34:58;;;;;;;52.50;19.60;;;;;;;-3.80;100.00;101262.88;5164706;28;20018;-71
2022/12/12 08:37:29;;;;;;;61.60;20.38;;;;;;;-3.30;100.00;101262.47;5163938;28;20084;-71
2022/12/12 08:39:59;;;;;;;57.85;20.65;;;;;;;-2.90;100.00;101265.00;5175063;28;20030;-71
2022/12/12 08:42:29;;;;;;;87.32;22.35;;;;;;;-2.54;100.00;101253.72;5168793;28;20072;-71
2022/12/12 08:45:00;;;;;;;48.65;20.40;;;;;;;-2.16;100.00;101264.16;5169119;28;20041;-72
2022/12/12 08:47:30;;;;;;;53.03;19.95;;;;;;;-1.83;100.00;101254.59;5161160;28;20039;-71
2022/12/12 08:50:01;;;;;;;54.42;20.77;;;;;;;-1.54;100.00;101249.66;5172799;28;20036;-71
2022/12/12 08:52:31;;;;;;;48.30;19.40;;;;;;;-1.36;100.00;101253.94;5175213;28;20068;-71
2022/12/12 08:55:02;;;;;;;43.45;19.27;;;;;;;-1.21;100.00;101244.38;5168727;28;20109;-71
2022/12/12 08:57:33;;;;;;;46.38;19.00;;;;;;;-1.06;100.00;101246.19;5170397;28;20092;-71
2022/12/12 09:00:04;;;;;;;45.38;18.23;;;;;;;-0.89;100.00;101247.94;5175602;28;20479;-72
2022/12/12 09:02:34;;;;;;;47.25;18.77;;;;;;;-0.58;100.00;101243.63;5160880;28;20037;-71
2022/12/12 09:05:05;;;;;;;47.00;18.83;;;;;;;-0.29;100.00;101248.13;5163020;28;20412;-72
2022/12/12 09:07:36;;;;;;;40.78;17.83;;;;;;;-0.06;100.00;101246.78;5169846;28;20021;-72
2022/12/12 09:10:07;;;;;;;44.83;19.17;;;;;;;0.19;100.00;101246.22;5164880;28;20029;-72
2022/12/12 09:12:38;;;;;;;41.25;16.60;;;;;;;0.36;100.00;101242.59;5177313;28;20032;-72
2022/12/12 09:15:09;;;;;;;42.20;17.63;;;;;;;0.59;100.00;101243.84;5169048;28;20018;-72
2022/12/12 09:17:39;;;;;;;39.97;17.73;;;;;;;0.67;100.00;101238.97;5165486;28;20096;-72
2022/12/12 09:20:10;;;;;;;40.90;17.55;;;;;;;0.82;100.00;101244.25;5166234;28;20029;-72
2022/12/12 09:22:41;;;;;;;37.10;16.60;;;;;;;0.88;100.00;101251.81;5163874;28;20018;-72
2022/12/12 09:25:11;;;;;;;39.30;16.77;;;;;;;1.03;100.00;101261.44;5168482;28;20057;-72
2022/12/12 09:27:42;;;;;;;41.40;17.25;;;;;;;1.01;100.00;101261.53;5160821;28;20116;-72
2022/12/12 09:30:12;;;;;;;44.42;17.40;;;;;;;1.03;100.00;101261.44;5173659;28;20034;-72
2022/12/12 09:32:44;;;;;;;36.53;16.77;;;;;;;0.95;100.00;101264.53;5160104;28;20531;-72
2022/12/12 09:35:14;;;;;;;41.92;17.75;;;;;;;1.07;100.00;101255.00;5161416;28;20712;-72
2022/12/12 09:37:45;;;;;;;42.55;17.75;;;;;;;1.01;100.00;101264.16;5159716;28;20026;-72
2022/12/12 09:40:26;;;;;;;41.20;16.45;;;;;;;1.13;100.00;101259.06;5161782;28;20022;-73
2022/12/12 09:42:57;;;;;;;42.50;17.60;;;;;;;0.94;100.00;101256.69;5164427;28;20037;-72
2022/12/12 09:45:29;;;;;;;43.80;17.08;;;;;;;1.14;100.00;101258.13;5165806;28;20030;-72
2022/12/12 09:48:02;;;;;;;43.78;17.33;;;;;;;0.98;100.00;101256.41;5162161;28;20018;-72
2022/12/12 09:50:36;;;;;;;38.05;15.00;;;;;;;0.82;100.00;101262.75;5178299;28;20547;-72
2022/12/12 09:53:14;;;;;;;40.05;14.68;;;;;;;0.59;100.00;101250.91;5159110;28;20022;-72
2022/12/12 09:56:14;;;;;;;38.58;16.50;;;;;;;0.05;100.00;101254.13;5176576;28;20044;-73
2022/12/12 09:58:50;;;;;;;42.38;16.27;;;;;;;-0.05;100.00;101252.91;5160093;28;20029;-72
2022/12/12 10:01:44;;;;;;;35.95;15.00;;;;;;;-0.02;100.00;101253.59;5162150;28;20048;-72
2022/12/12 10:04:31;;;;;;;41.47;14.40;;;;;;;-0.21;100.00;101252.09;5163590;28;20034;-73
2022/12/12 10:07:16;;;;;;;40.22;15.27;;;;;;;-0.42;100.00;101247.09;5170911;28;20028;-73
2022/12/12 10:10:11;;;;;;;39.58;14.35;;;;;;;-0.48;100.00;101255.38;5162003;28;20498;-73
2022/12/12 10:12:43;;;;;;;41.33;15.50;;;;;;;-0.36;100.00;101251.19;5160031;28;20026;-72
2022/12/12 10:15:38;;;;;;;43.78;14.43;;;;;;;-0.34;100.00;101250.16;5161100;28;20021;-73
2022/12/12 10:18:29;;;;;;;37.42;14.93;;;;;;;-0.51;100.00;101260.78;5167162;28;20042;-73
2022/12/12 10:21:04;;;;;;;42.10;16.23;;;;;;;-0.51;100.00;101258.16;5168784;28;20018;-73
2022/12/12 10:23:49;;;;;;;43.13;14.23;;;;;;;-0.64;100.00;101255.38;5167812;28;20026;-73
2022/12/12 10:26:26;;;;;;;40.47;14.65;;;;;;;-0.47;100.00;101253.56;5161861;28;20019;-72
2022/12/12 10:29:10;;;;;;;43.83;16.55;;;;;;;-0.35;100.00;101252.88;5174027;28;20026;-72
2022/12/12 10:32:02;;;;;;;41.22;15.77;;;;;;;-0.33;100.00;101256.28;5159354;28;20026;-73
2022/12/12 10:34:41;;;;;;;46.83;15.18;;;;;;;-0.31;100.00;101252.63;5159817;28;20037;-73
2022/12/12 10:37:29;;;;;;;45.72;15.43;;;;;;;-0.47;100.00;101249.16;5158310;28;20057;-73
2022/12/12 10:40:29;;;;;;;43.83;15.00;;;;;;;-0.50;100.00;101246.69;5166143;28;20076;-73
2022/12/12 10:43:18;;;;;;;42.08;14.32;;;;;;;-0.27;100.00;101246.25;5161629;28;20026;-72
2022/12/12 10:46:13;;;;;;;38.22;14.27;;;;;;;-0.41;100.00;101247.94;5165995;28;20022;-73
2022/12/12 10:48:46;;;;;;;34.78;12.98;;;;;;;-0.53;100.00;101244.22;5165146;28;20028;-73
2022/12/12 10:51:21;;;;;;;40.00;13.77;;;;;;;-0.40;100.00;101244.38;5164199;28;20022;-72
2022/12/12 10:53:52;;;;;;;37.28;12.88;;;;;;;-0.34;100.00;101244.06;5174271;28;20419;-73
2022/12/12 10:56:27;;;;;;;33.97;13.00;;;;;;;-0.28;100.00;101236.63;5169929;28;20030;-72
2022/12/12 10:59:00;;;;;;;37.83;14.82;;;;;;;-0.18;100.00;101241.38;5159227;28;20033;-73
2022/12/12 11:01:34;;;;;;;34.10;13.63;;;;;;;-0.10;100.00;101242.66;5171025;28;20068;-73
2022/12/12 11:04:05;;;;;;;35.03;12.97;;;;;;;0.06;100.00;101239.13;5163300;28;20034;-73
2022/12/12 11:06:36;;;;;;;40.72;13.80;;;;;;;0.05;100.00;101237.41;5163248;28;20850;-73
2022/12/12 11:09:21;;;;;;;35.05;12.95;;;;;;;0.12;100.00;101236.97;5170548;28;20101;-73
2022/12/12 11:12:12;;;;;;;33.83;13.37;;;;;;;0.25;100.00;101242.38;5176070;28;20029;-73
2022/12/12 11:14:51;;;;;;;39.22;13.50;;;;;;;0.34;100.00;101240.97;5170670;28;20280;-74
2022/12/12 11:17:30;;;;;;;38.90;12.48;;;;;;;0.33;100.00;101234.84;5174346;28;20550;-73
2022/12/12 11:20:07;;;;;;;37.80;13.35;;;;;;;0.41;100.00;101231.78;5168445;28;20022;-73
2022/12/12 11:22:38;;;;;;;34.28;12.50;;;;;;;0.46;100.00;101232.34;5165458;28;20029;-74
2022/12/12 11:25:30;;;;;;;39.50;13.93;;;;;;;0.47;100.00;101226.97;5165943;28;20093;-74
2022/12/12 11:28:02;;;;;;;36.45;12.65;;;;;;;0.53;100.00;101228.38;5173854;28;20032;-74
2022/12/12 11:30:41;;;;;;;29.42;11.23;;;;;;;0.55;100.00;101218.56;5166726;28;20097;-74
2022/12/12 11:33:20;;;;;;;32.90;12.88;;;;;;;0.64;100.00;101215.38;5163274;28;20037;-73
2022/12/12 11:35:54;;;;;;;35.33;13.10;;;;;;;0.78;100.00;101219.81;5169796;28;20022;-74
2022/12/12 11:38:39;;;;;;;35.95;14.35;;;;;;;0.87;100.00;101213.13;5163348;28;20030;-74
2022/12/12 11:41:11;;;;;;;36.50;12.68;;;;;;;0.85;100.00;101205.28;5164160;28;20029;-74
2022/12/12 11:43:47;;;;;;;32.00;12.80;;;;;;;0.88;100.00;101205.09;5163973;28;20041;-74
2022/12/12 11:46:29;;;;;;;36.05;12.73;;;;;;;0.76;100.00;101200.59;5163859;28;20030;-74
2022/12/12 11:49:03;;;;;;;35.10;12.15;;;;;;;0.82;100.00;101209.91;5163963;28;20543;-74
2022/12/12 11:51:35;;;;;;;34.00;12.48;;;;;;;0.85;100.00;101205.28;5162914;28;20032;-75
2022/12/12 11:54:11;;;;;;;26.23;11.40;;;;;;;0.84;100.00;101200.94;5164623;28;20042;-74
2022/12/12 11:57:03;;;;;;;32.90;11.32;;;;;;;0.86;100.00;101195.59;5164905;28;20033;-74